createdAt,value
2019-03-06T00:01:53.203Z,16.73
2019-03-06T00:04:24.010Z,14.90
2019-03-06T00:06:52.175Z,15.53
2019-03-06T00:09:20.114Z,17.67
2019-03-06T00:11:49.502Z,17.77
2019-03-06T00:14:19.022Z,15.60
2019-03-06T00:17:39.670Z,15.93
2019-03-06T00:20:10.580Z,14.90
2019-03-06T00:22:42.071Z,14.97
2019-03-06T00:25:22.675Z,16.37
2019-03-06T00:27:50.639Z,14.87
2019-03-06T00:30:19.692Z,15.93
2019-03-06T00:32:48.081Z,15.53
2019-03-06T00:35:24.867Z,16.40
2019-03-06T00:37:55.358Z,15.43
2019-03-06T00:40:37.435Z,14.07
2019-03-06T00:43:05.994Z,15.23
2019-03-06T00:45:39.678Z,18.67
2019-03-06T00:48:08.143Z,15.60
2019-03-06T00:50:37.560Z,15.47
2019-03-06T00:53:05.532Z,19.20
2019-03-06T00:55:44.769Z,16.13
2019-03-06T00:58:12.956Z,13.97
2019-03-06T01:00:41.207Z,16.77
2019-03-06T01:03:10.227Z,16.53
2019-03-06T01:05:38.853Z,16.87
2019-03-06T01:08:06.974Z,18.97
2019-03-06T01:10:35.253Z,17.23
2019-03-06T01:13:03.400Z,17.70
2019-03-06T01:15:32.610Z,16.43
2019-03-06T01:18:03.265Z,19.23
2019-03-06T01:20:31.488Z,17.53
2019-03-06T01:22:59.557Z,16.90
2019-03-06T01:25:29.316Z,17.37
2019-03-06T01:27:58.103Z,15.43
2019-03-06T01:30:27.114Z,16.10
2019-03-06T01:33:01.043Z,17.20
2019-03-06T01:35:45.895Z,19.90
2019-03-06T01:38:45.845Z,18.33
2019-03-06T01:41:31.431Z,20.10
2019-03-06T01:44:21.697Z,19.90
2019-03-06T01:46:50.163Z,20.43
2019-03-06T01:49:24.351Z,19.67
2019-03-06T01:51:52.899Z,18.67
2019-03-06T01:54:21.497Z,19.87
2019-03-06T01:56:50.034Z,21.47
2019-03-06T01:59:20.458Z,20.20
2019-03-06T02:01:49.582Z,19.07
2019-03-06T02:04:25.181Z,24.10
2019-03-06T02:06:54.819Z,21.27
2019-03-06T02:09:26.891Z,21.20
2019-03-06T02:11:55.263Z,20.00
2019-03-06T02:14:23.276Z,21.90
2019-03-06T02:16:51.795Z,21.67
2019-03-06T02:19:39.932Z,22.07
2019-03-06T02:22:08.892Z,23.87
2019-03-06T02:24:39.245Z,24.93
2019-03-06T02:27:07.632Z,21.80
2019-03-06T02:29:36.300Z,22.77
2019-03-06T02:32:05.366Z,22.60
2019-03-06T02:34:41.809Z,20.67
2019-03-06T02:37:10.038Z,23.90
2019-03-06T02:39:38.633Z,23.00
2019-03-06T02:42:11.864Z,24.53
2019-03-06T02:44:40.245Z,22.33
2019-03-06T02:47:08.974Z,20.87
2019-03-06T02:49:45.257Z,25.70
2019-03-06T02:52:15.666Z,23.63
2019-03-06T02:54:44.446Z,26.67
2019-03-06T02:57:13.163Z,23.17
2019-03-06T03:00:11.930Z,24.53
2019-03-06T03:02:58.237Z,22.93
2019-03-06T03:05:34.298Z,25.47
2019-03-06T03:08:08.813Z,24.77
2019-03-06T03:10:37.012Z,25.43
2019-03-06T03:13:07.143Z,26.77
2019-03-06T03:15:35.519Z,24.03
2019-03-06T03:18:04.028Z,27.30
2019-03-06T03:20:37.349Z,25.93
2019-03-06T03:23:08.256Z,27.13
2019-03-06T03:25:36.669Z,27.07
2019-03-06T03:28:07.857Z,29.50
2019-03-06T03:30:35.640Z,24.33
2019-03-06T03:33:03.414Z,11.30
2019-03-06T03:35:35.218Z,8.30
2019-03-06T03:38:03.356Z,3.60
2019-03-06T03:40:31.207Z,3.37
2019-03-06T03:43:00.848Z,4.23
2019-03-06T03:45:28.908Z,4.03
2019-03-06T03:47:57.811Z,7.53
2019-03-06T03:50:26.280Z,11.37
2019-03-06T03:52:54.305Z,21.03
2019-03-06T03:55:22.650Z,24.33
2019-03-06T03:57:50.792Z,20.50
2019-03-06T04:00:19.097Z,19.93
2019-03-06T04:02:47.167Z,19.67
2019-03-06T04:05:15.436Z,16.43
2019-03-06T04:07:43.441Z,19.07
2019-03-06T04:10:12.282Z,22.00
2019-03-06T04:12:40.494Z,20.43
2019-03-06T04:15:09.285Z,24.67
2019-03-06T04:17:37.384Z,25.40
2019-03-06T04:20:06.085Z,26.20
2019-03-06T04:22:34.023Z,26.03
2019-03-06T04:25:03.168Z,26.23
2019-03-06T04:27:31.393Z,27.10
2019-03-06T04:29:59.786Z,33.60
2019-03-06T04:32:27.613Z,20.07
2019-03-06T04:34:55.730Z,24.80
2019-03-06T04:37:29.734Z,22.27
2019-03-06T04:39:58.523Z,25.40
2019-03-06T04:42:30.501Z,25.67
2019-03-06T04:44:59.996Z,29.90
2019-03-06T04:47:29.298Z,25.73
2019-03-06T04:50:01.454Z,26.57
2019-03-06T04:52:34.880Z,26.27
2019-03-06T04:55:03.651Z,22.50
2019-03-06T04:57:37.897Z,16.70
2019-03-06T05:00:07.566Z,21.10
2019-03-06T05:02:38.877Z,22.37
2019-03-06T05:05:07.652Z,20.87
2019-03-06T05:07:36.103Z,20.63
2019-03-06T05:10:04.689Z,21.07
2019-03-06T05:12:34.082Z,23.63
2019-03-06T05:15:02.485Z,23.47
2019-03-06T05:17:47.825Z,22.63
2019-03-06T05:20:17.115Z,22.70
2019-03-06T05:22:46.078Z,21.27
2019-03-06T05:25:14.617Z,21.13
2019-03-06T05:27:43.694Z,23.80
2019-03-06T05:30:11.798Z,25.80
2019-03-06T05:32:39.589Z,25.10
2019-03-06T05:35:34.921Z,22.63
2019-03-06T05:38:06.383Z,25.57
2019-03-06T05:40:34.086Z,25.17
2019-03-06T05:43:01.793Z,24.90
2019-03-06T05:45:29.574Z,29.70
2019-03-06T05:47:57.311Z,26.53
2019-03-06T05:50:25.005Z,28.53
2019-03-06T05:52:52.649Z,32.80
2019-03-06T05:55:20.432Z,27.53
2019-03-06T05:57:48.175Z,24.57
2019-03-06T06:00:17.124Z,24.23
2019-03-06T06:02:44.946Z,22.70
2019-03-06T06:05:13.130Z,18.53
2019-03-06T06:07:42.287Z,19.37
2019-03-06T06:10:10.363Z,18.80
2019-03-06T06:12:38.325Z,15.57
2019-03-06T06:15:07.451Z,13.40
2019-03-06T06:17:35.229Z,9.17
2019-03-06T06:20:03.324Z,9.63
2019-03-06T06:22:59.069Z,8.23
2019-03-06T06:25:27.672Z,8.97
2019-03-06T06:31:52.570Z,8.53
2019-03-06T06:34:20.320Z,9.70
2019-03-06T06:36:47.942Z,6.60
2019-03-06T06:39:15.838Z,8.60
2019-03-06T06:41:45.874Z,10.63
2019-03-06T06:44:13.528Z,8.87
2019-03-06T06:46:43.349Z,9.10
2019-03-06T06:49:10.915Z,9.53
2019-03-06T06:52:25.718Z,9.27
2019-03-06T06:55:20.284Z,8.10
2019-03-06T06:58:31.369Z,10.17
2019-03-06T07:01:30.453Z,8.20
2019-03-06T07:05:06.797Z,9.80
2019-03-06T07:07:55.033Z,11.33
2019-03-06T07:10:57.237Z,10.97
2019-03-06T07:13:51.720Z,15.57
2019-03-06T07:16:45.135Z,10.90
2019-03-06T07:19:23.338Z,11.03
2019-03-06T07:22:22.341Z,12.03
2019-03-06T07:25:18.484Z,23.93
2019-03-06T07:27:59.349Z,26.07
2019-03-06T07:30:48.060Z,22.67
2019-03-06T07:33:41.116Z,18.77
2019-03-06T07:36:31.034Z,17.83
2019-03-06T07:39:15.485Z,14.90
2019-03-06T07:42:01.500Z,14.23
2019-03-06T07:44:48.552Z,11.13
2019-03-06T07:47:32.125Z,14.00
2019-03-06T07:50:18.180Z,13.77
2019-03-06T07:53:49.888Z,13.17
2019-03-06T07:56:25.470Z,14.73
2019-03-06T07:58:54.440Z,14.70
2019-03-06T08:01:24.082Z,16.00
2019-03-06T08:04:07.041Z,14.53
2019-03-06T08:06:34.850Z,16.97
2019-03-06T08:09:03.326Z,17.03
2019-03-06T08:11:39.194Z,17.57
2019-03-06T08:14:26.434Z,22.27
2019-03-06T08:17:04.049Z,20.57
2019-03-06T08:19:54.143Z,23.07
2019-03-06T08:22:50.645Z,23.77
2019-03-06T08:25:31.283Z,23.20
2019-03-06T08:27:59.145Z,22.40
2019-03-06T08:30:28.807Z,24.60
2019-03-06T08:32:56.602Z,22.73
2019-03-06T08:35:24.418Z,21.90
2019-03-06T08:37:52.215Z,21.50
2019-03-06T08:40:22.229Z,23.67
2019-03-06T08:42:50.492Z,22.90
2019-03-06T08:45:20.022Z,22.07
2019-03-06T08:48:00.207Z,21.17
2019-03-06T08:50:53.353Z,22.60
2019-03-06T08:53:29.287Z,21.67
2019-03-06T08:56:22.779Z,20.80
2019-03-06T08:59:11.211Z,27.63
2019-03-06T09:02:16.094Z,24.90
2019-03-06T09:05:00.443Z,22.93
2019-03-06T09:07:45.972Z,24.63
2019-03-06T09:10:32.091Z,27.43
2019-03-06T09:13:12.329Z,27.03
2019-03-06T09:15:55.210Z,26.93
2019-03-06T09:18:41.561Z,30.03
2019-03-06T09:21:40.880Z,27.07
2019-03-06T09:24:29.277Z,34.70
2019-03-06T09:27:14.721Z,34.80
2019-03-06T09:30:04.976Z,36.97
2019-03-06T09:32:54.759Z,37.13
2019-03-06T09:35:40.606Z,37.77
2019-03-06T09:38:30.794Z,38.30
2019-03-06T09:41:18.619Z,41.40
2019-03-06T09:44:06.525Z,37.07
2019-03-06T09:46:57.366Z,40.37
2019-03-06T09:49:47.743Z,39.80
2019-03-06T09:52:33.761Z,39.67
2019-03-06T09:55:21.038Z,41.83
2019-03-06T09:58:20.525Z,43.03
2019-03-06T10:01:06.451Z,40.83
2019-03-06T10:03:45.535Z,41.13
2019-03-06T10:06:31.235Z,41.67
2019-03-06T10:09:16.938Z,43.13
2019-03-06T10:12:04.149Z,44.07
2019-03-06T10:14:49.216Z,42.33
2019-03-06T10:17:30.320Z,38.40
2019-03-06T10:20:02.448Z,43.30
2019-03-06T10:22:30.637Z,43.20
2019-03-06T10:24:58.692Z,43.00
2019-03-06T10:27:26.762Z,43.57
2019-03-06T10:29:55.437Z,40.73
2019-03-06T10:32:24.762Z,44.17
2019-03-06T10:34:52.568Z,39.37
2019-03-06T10:37:22.260Z,40.97
2019-03-06T10:39:50.725Z,35.53
2019-03-06T10:42:18.836Z,39.37
2019-03-06T10:44:49.300Z,36.07
2019-03-06T10:47:17.101Z,32.60
2019-03-06T10:49:44.920Z,33.83
2019-03-06T10:52:14.761Z,31.77
2019-03-06T10:54:44.925Z,29.80
2019-03-06T10:57:12.967Z,31.63
2019-03-06T10:59:41.116Z,30.67
2019-03-06T11:02:11.384Z,26.83
2019-03-06T11:05:01.891Z,26.57
2019-03-06T11:07:30.464Z,26.37
2019-03-06T11:09:59.746Z,28.27
2019-03-06T11:12:28.227Z,31.07
2019-03-06T11:14:58.599Z,29.40
2019-03-06T11:17:26.663Z,32.67
2019-03-06T11:19:57.037Z,30.23
2019-03-06T11:22:25.545Z,31.33
2019-03-06T11:24:53.909Z,32.77
2019-03-06T11:27:21.970Z,30.30
2019-03-06T11:29:50.060Z,32.70
2019-03-06T11:32:18.059Z,30.97
2019-03-06T11:34:46.896Z,29.97
2019-03-06T11:37:17.035Z,29.70
2019-03-06T11:39:45.681Z,36.67
2019-03-06T11:42:14.036Z,32.27
2019-03-06T11:44:41.933Z,29.23
2019-03-06T11:47:10.040Z,32.63
2019-03-06T11:49:38.559Z,30.93
2019-03-06T11:52:06.626Z,30.83
2019-03-06T11:54:36.926Z,31.13
2019-03-06T11:57:05.136Z,35.43
2019-03-06T11:59:33.188Z,36.07
2019-03-06T12:02:01.425Z,31.23
2019-03-06T12:04:29.332Z,24.40
2019-03-06T12:06:57.622Z,26.07
2019-03-06T12:09:30.904Z,23.97
2019-03-06T12:12:01.863Z,23.97
2019-03-06T12:14:34.608Z,25.17
2019-03-06T12:17:03.281Z,23.03
2019-03-06T12:19:33.178Z,24.37
2019-03-06T12:22:01.923Z,24.23
2019-03-06T12:24:30.745Z,22.40
2019-03-06T12:26:58.905Z,17.70
2019-03-06T12:29:27.904Z,19.83
2019-03-06T12:31:58.681Z,17.30
2019-03-06T12:34:29.523Z,17.20
2019-03-06T12:36:57.349Z,18.77
2019-03-06T12:39:27.893Z,15.07
2019-03-06T12:42:13.987Z,14.83
2019-03-06T12:44:37.022Z,14.10
2019-03-06T12:47:05.830Z,16.37
2019-03-06T12:49:33.864Z,16.20
2019-03-06T12:52:01.956Z,18.63
2019-03-06T12:54:30.678Z,15.83
2019-03-06T12:56:59.181Z,17.83
2019-03-06T12:59:27.523Z,15.23
2019-03-06T13:01:55.533Z,13.57
2019-03-06T13:04:24.930Z,16.33
2019-03-06T13:06:53.991Z,15.53
2019-03-06T13:09:24.063Z,19.30
2019-03-06T13:11:52.229Z,19.00
2019-03-06T13:14:20.874Z,14.60
2019-03-06T13:16:49.434Z,15.30
2019-03-06T13:19:18.091Z,17.53
2019-03-06T13:21:46.113Z,16.73
2019-03-06T13:24:14.762Z,18.63
2019-03-06T13:26:42.870Z,15.77
2019-03-06T13:29:10.891Z,14.73
2019-03-06T13:31:42.566Z,20.73
2019-03-06T13:34:18.836Z,18.47
2019-03-06T13:36:46.529Z,17.10
2019-03-06T13:39:14.186Z,16.37
2019-03-06T13:41:41.775Z,15.53
2019-03-06T13:44:09.797Z,17.57
2019-03-06T13:46:37.555Z,13.03
2019-03-06T13:49:05.141Z,20.43
2019-03-06T13:51:33.073Z,15.47
2019-03-06T13:54:00.897Z,15.53
2019-03-06T13:56:28.658Z,15.93
2019-03-06T13:58:56.311Z,16.63
2019-03-06T14:01:24.015Z,13.63
2019-03-06T14:03:51.878Z,15.30
2019-03-06T14:06:19.568Z,14.77
2019-03-06T14:08:47.252Z,17.23
2019-03-06T14:11:14.983Z,17.63
2019-03-06T14:13:42.823Z,15.53
2019-03-06T14:16:10.682Z,12.00
2019-03-06T14:18:38.612Z,15.87
2019-03-06T14:21:07.549Z,13.00
2019-03-06T14:23:35.551Z,17.87
2019-03-06T14:26:06.441Z,12.37
2019-03-06T14:28:35.933Z,14.53
2019-03-06T14:31:03.708Z,13.57
2019-03-06T14:33:31.597Z,13.40
2019-03-06T14:36:03.003Z,12.40
2019-03-06T14:38:31.160Z,14.27
2019-03-06T14:41:00.085Z,13.47
2019-03-06T14:43:28.141Z,15.33
2019-03-06T14:45:56.051Z,15.20
2019-03-06T14:48:27.113Z,15.33
2019-03-06T14:50:54.823Z,18.07
2019-03-06T14:53:22.972Z,15.40
2019-03-06T14:55:50.894Z,15.43
2019-03-06T14:58:19.767Z,13.20
2019-03-06T15:00:47.836Z,13.90
2019-03-06T15:03:16.096Z,16.20
2019-03-06T15:05:47.020Z,17.63
2019-03-06T15:08:14.128Z,16.93
2019-03-06T15:10:47.318Z,20.43
2019-03-06T15:13:55.624Z,17.70
2019-03-06T15:16:24.258Z,18.67
2019-03-06T15:18:55.605Z,16.27
2019-03-06T15:21:23.444Z,18.53
2019-03-06T15:23:51.851Z,18.50
2019-03-06T15:26:19.790Z,18.57
2019-03-06T15:28:48.194Z,15.83
2019-03-06T15:31:16.090Z,17.83
2019-03-06T15:33:44.778Z,16.13
2019-03-06T15:36:12.992Z,22.60
2019-03-06T15:38:41.113Z,16.93
2019-03-06T15:41:09.026Z,19.47
2019-03-06T15:43:36.750Z,20.07
2019-03-06T15:46:04.683Z,16.87
2019-03-06T15:48:32.700Z,17.93
2019-03-06T15:51:00.586Z,19.67
2019-03-06T15:53:28.420Z,20.17
2019-03-06T15:55:56.636Z,22.63
2019-03-06T15:58:24.769Z,20.87
2019-03-06T16:00:52.719Z,22.83
2019-03-06T16:03:22.945Z,23.50
2019-03-06T16:05:51.020Z,22.17
2019-03-06T16:08:19.330Z,22.47
2019-03-06T16:10:47.444Z,21.23
2019-03-06T16:13:15.474Z,20.37
2019-03-06T16:15:43.309Z,23.33
2019-03-06T16:18:11.297Z,24.07
2019-03-06T16:20:39.536Z,24.00
2019-03-06T16:23:07.504Z,27.80
2019-03-06T16:25:37.994Z,21.77
2019-03-06T16:28:05.580Z,31.57
2019-03-06T16:30:33.991Z,28.93
2019-03-06T16:33:01.795Z,26.70
2019-03-06T16:35:30.588Z,21.40
2019-03-06T16:37:58.625Z,29.27
2019-03-06T16:40:27.165Z,27.37
2019-03-06T16:42:54.973Z,34.50
2019-03-06T16:45:23.574Z,38.27
2019-03-06T16:47:51.579Z,34.60
2019-03-06T16:50:19.994Z,37.87
2019-03-06T16:52:48.393Z,33.43
2019-03-06T16:55:17.385Z,37.90
2019-03-06T16:57:45.497Z,40.87
2019-03-06T17:00:19.369Z,44.23
2019-03-06T17:02:47.466Z,42.90
2019-03-06T17:05:18.033Z,45.07
2019-03-06T17:07:46.062Z,42.43
2019-03-06T17:10:15.032Z,51.73
2019-03-06T17:12:43.083Z,48.40
2019-03-06T17:15:12.775Z,48.77
2019-03-06T17:17:41.185Z,50.70
2019-03-06T17:20:09.129Z,47.63
2019-03-06T17:22:36.953Z,52.10
2019-03-06T17:25:05.986Z,54.53
2019-03-06T17:27:33.877Z,55.33
2019-03-06T17:30:07.759Z,57.87
2019-03-06T17:32:36.446Z,51.93
2019-03-06T17:35:05.682Z,59.27
2019-03-06T17:37:48.560Z,57.73
2019-03-06T17:40:17.371Z,55.33
2019-03-06T17:42:50.289Z,59.17
2019-03-06T17:45:21.579Z,63.30
2019-03-06T17:47:49.992Z,64.10
2019-03-06T17:50:19.436Z,63.30
2019-03-06T17:52:48.449Z,70.20
2019-03-06T17:55:21.595Z,62.53
2019-03-06T17:58:04.713Z,72.27
2019-03-06T18:00:48.856Z,71.17
2019-03-06T18:03:40.197Z,67.47
2019-03-06T18:06:15.940Z,67.47
2019-03-06T18:08:46.538Z,65.60
2019-03-06T18:11:14.844Z,68.33
2019-03-06T18:13:43.349Z,63.30
2019-03-06T18:16:12.476Z,72.93
2019-03-06T18:18:42.535Z,70.43
2019-03-06T18:21:19.676Z,75.93
2019-03-06T18:26:37.654Z,70.33
2019-03-06T18:29:13.917Z,73.93
2019-03-06T18:31:46.824Z,75.00
2019-03-06T18:34:21.019Z,74.73
2019-03-06T18:36:52.397Z,79.77
2019-03-06T18:39:28.766Z,78.50
2019-03-06T18:42:00.381Z,78.53
2019-03-06T18:44:33.583Z,77.30
2019-03-06T18:47:07.092Z,74.33
2019-03-06T18:49:42.770Z,77.80
2019-03-06T18:52:18.359Z,75.27
2019-03-06T18:54:51.230Z,80.13
2019-03-06T18:57:24.514Z,82.00
2019-03-06T18:59:54.425Z,86.43
2019-03-06T19:02:27.183Z,78.27
2019-03-06T19:04:59.795Z,74.77
2019-03-06T19:07:28.530Z,75.60
2019-03-06T19:09:58.241Z,83.67
2019-03-06T19:12:27.468Z,84.53
2019-03-06T19:14:59.603Z,82.67
2019-03-06T19:17:43.017Z,83.17
2019-03-06T19:20:14.686Z,81.80
2019-03-06T19:22:48.562Z,88.93
2019-03-06T19:25:26.067Z,85.17
2019-03-06T19:28:03.433Z,94.03
2019-03-06T19:30:38.919Z,94.87
2019-03-06T19:33:20.568Z,93.77
2019-03-06T19:35:53.786Z,94.50
2019-03-06T19:38:26.128Z,89.50
2019-03-06T19:40:55.203Z,85.03
2019-03-06T19:43:38.067Z,81.03
2019-03-06T19:46:13.963Z,82.40
2019-03-06T19:48:48.773Z,80.03
2019-03-06T19:51:20.379Z,78.30
2019-03-06T19:53:59.805Z,80.97
2019-03-06T19:56:29.350Z,76.23
2019-03-06T19:59:00.538Z,75.03
2019-03-06T20:01:45.821Z,75.50
2019-03-06T20:04:11.223Z,78.83
2019-03-06T20:06:39.711Z,76.70
2019-03-06T20:09:29.317Z,76.07
2019-03-06T20:11:57.807Z,72.07
2019-03-06T20:14:58.595Z,71.20
2019-03-06T20:17:28.424Z,76.07
2019-03-06T20:20:17.063Z,74.43
2019-03-06T20:22:48.290Z,77.67
2019-03-06T20:25:26.666Z,70.47
2019-03-06T20:28:25.315Z,73.63
2019-03-06T20:30:56.741Z,74.73
2019-03-06T20:33:31.937Z,71.60
2019-03-06T20:36:21.920Z,75.17
2019-03-06T20:38:54.764Z,76.30
2019-03-06T20:41:29.963Z,72.33
2019-03-06T20:44:05.809Z,71.50
2019-03-06T20:46:36.884Z,74.33
2019-03-06T20:49:18.684Z,73.23
2019-03-06T20:51:54.650Z,67.70
2019-03-06T20:54:37.986Z,67.37
2019-03-06T20:57:05.501Z,69.97
2019-03-06T20:59:34.599Z,73.97
2019-03-06T21:02:28.628Z,69.93
2019-03-06T21:04:57.501Z,66.20
2019-03-06T21:07:38.247Z,71.63
2019-03-06T21:10:08.077Z,77.37
2019-03-06T21:12:37.185Z,72.30
2019-03-06T21:15:09.787Z,72.60
2019-03-06T21:17:40.601Z,73.47
2019-03-06T21:20:19.890Z,70.80
2019-03-06T21:22:54.767Z,70.63
2019-03-06T21:25:34.826Z,65.50
2019-03-06T21:28:07.346Z,70.37
2019-03-06T21:31:00.353Z,65.03
2019-03-06T21:33:28.935Z,69.57
2019-03-06T21:36:01.231Z,69.07
2019-03-06T21:38:33.194Z,69.70
2019-03-06T21:41:05.914Z,68.23
2019-03-06T21:43:35.816Z,72.70
2019-03-06T21:46:12.013Z,68.90
2019-03-06T21:48:43.445Z,69.07
2019-03-06T21:51:11.825Z,70.63
2019-03-06T21:53:46.758Z,65.17
2019-03-06T21:56:16.451Z,66.00
2019-03-06T21:58:47.875Z,66.60
2019-03-06T22:01:31.355Z,62.93
2019-03-06T22:04:00.023Z,65.87
2019-03-06T22:06:33.360Z,67.83
2019-03-06T22:09:06.541Z,67.17
2019-03-06T22:11:36.566Z,69.17
2019-03-06T22:14:11.945Z,63.77
2019-03-06T22:16:41.633Z,64.53
2019-03-06T22:19:13.911Z,64.23
2019-03-06T22:21:47.381Z,63.93
2019-03-06T22:24:22.514Z,62.97
2019-03-06T22:26:58.464Z,64.30
2019-03-06T22:29:28.131Z,67.63
2019-03-06T22:31:56.549Z,64.20
2019-03-06T22:34:29.868Z,63.37
2019-03-06T22:37:05.021Z,62.47
2019-03-06T22:39:50.772Z,63.20
2019-03-06T22:42:19.475Z,61.07
2019-03-06T22:44:52.425Z,60.30
2019-03-06T22:47:21.412Z,64.73
2019-03-06T22:49:54.153Z,62.57
2019-03-06T22:52:32.227Z,61.27
2019-03-06T22:55:04.502Z,57.13
2019-03-06T22:57:36.127Z,59.67
2019-03-06T23:00:29.684Z,62.30
2019-03-06T23:02:59.905Z,61.60
2019-03-06T23:05:33.110Z,62.87
2019-03-06T23:08:08.449Z,61.73
2019-03-06T23:10:36.842Z,59.37
2019-03-06T23:13:07.472Z,59.00
2019-03-06T23:15:35.904Z,62.37
2019-03-06T23:18:09.975Z,60.90
2019-03-06T23:20:38.970Z,52.17
2019-03-06T23:23:13.059Z,63.70
2019-03-06T23:25:41.412Z,58.23
2019-03-06T23:28:12.806Z,56.97
2019-03-06T23:30:41.349Z,56.77
2019-03-06T23:33:09.654Z,55.50
2019-03-06T23:35:47.708Z,53.90
2019-03-06T23:38:25.559Z,57.03
2019-03-06T23:40:54.369Z,55.27
2019-03-06T23:43:23.008Z,49.07
2019-03-06T23:45:55.982Z,53.33
2019-03-06T23:48:27.732Z,50.83
2019-03-06T23:50:56.078Z,51.17
2019-03-06T23:53:47.418Z,51.47
2019-03-06T23:56:19.588Z,53.60
2019-03-06T23:58:54.998Z,52.20
